createdAt,value
2023-04-05T00:00:37.783Z,51.09
2023-04-05T00:01:37.724Z,54.33
2023-04-05T00:02:38.680Z,60.59
2023-04-05T00:03:37.720Z,49.79
2023-04-05T00:04:37.751Z,50.27
2023-04-05T00:05:37.634Z,60.12
2023-04-05T00:06:37.625Z,48.10
2023-04-05T00:07:37.639Z,46.98
2023-04-05T00:08:37.631Z,51.00
2023-04-05T00:09:37.619Z,53.73
2023-04-05T00:10:37.602Z,48.42
2023-04-05T00:11:37.588Z,47.66
2023-04-05T00:12:37.586Z,57.50
2023-04-05T00:13:37.560Z,52.76
2023-04-05T00:14:37.585Z,56.40
2023-04-05T00:15:37.572Z,55.31
2023-04-05T00:16:37.610Z,48.34
2023-04-05T00:17:37.588Z,43.25
2023-04-05T00:18:37.543Z,56.21
2023-04-05T00:19:37.517Z,45.05
2023-04-05T00:20:37.588Z,54.57
2023-04-05T00:21:37.501Z,59.04
2023-04-05T00:24:26.654Z,54.65
2023-04-05T00:25:26.646Z,49.82
2023-04-05T00:26:26.637Z,46.17
2023-04-05T00:27:27.771Z,47.56
2023-04-05T00:28:27.710Z,43.44
2023-04-05T00:29:27.720Z,41.08
2023-04-05T00:30:27.717Z,46.44
2023-04-05T00:31:27.715Z,45.06
2023-04-05T00:32:27.705Z,41.86
2023-04-05T00:33:27.681Z,49.73
2023-04-05T00:34:27.687Z,62.65
2023-04-05T00:35:27.698Z,55.00
2023-04-05T00:36:27.665Z,53.91
2023-04-05T00:37:27.680Z,58.29
2023-04-05T00:38:27.646Z,57.09
2023-04-05T00:39:27.627Z,60.79
2023-04-05T00:40:27.632Z,53.23
2023-04-05T00:41:27.635Z,61.46
2023-04-05T00:42:27.622Z,52.32
2023-04-05T00:43:27.631Z,43.18
2023-04-05T00:44:27.605Z,59.57
2023-04-05T00:45:27.595Z,53.74
2023-04-05T00:46:27.625Z,50.77
2023-04-05T00:47:27.595Z,49.66
2023-04-05T00:48:27.611Z,47.31
2023-04-05T00:49:27.564Z,44.66
2023-04-05T00:50:27.570Z,42.06
2023-04-05T00:51:27.574Z,53.61
2023-04-05T00:52:27.540Z,45.84
2023-04-05T00:53:27.537Z,55.49
2023-04-05T00:54:27.519Z,45.51
2023-04-05T00:55:27.545Z,60.58
2023-04-05T00:56:27.533Z,42.69
2023-04-05T00:57:27.510Z,52.92
2023-04-05T00:58:27.515Z,52.76
2023-04-05T00:59:27.562Z,46.84
2023-04-05T01:00:27.494Z,56.20
2023-04-05T01:01:27.541Z,43.72
2023-04-05T01:02:27.485Z,45.09
2023-04-05T01:03:27.471Z,49.85
2023-04-05T01:04:27.484Z,44.83
2023-04-05T01:05:27.436Z,52.26
2023-04-05T01:06:27.472Z,50.43
2023-04-05T01:07:27.436Z,54.78
2023-04-05T01:08:27.439Z,49.03
2023-04-05T01:09:27.421Z,45.92
2023-04-05T01:10:27.407Z,55.63
2023-04-05T01:11:27.399Z,52.60
2023-04-05T01:12:27.428Z,54.47
2023-04-05T01:13:27.375Z,50.65
2023-04-05T01:14:27.385Z,58.58
2023-04-05T01:15:27.440Z,47.75
2023-04-05T01:16:27.417Z,53.84
2023-04-05T01:17:27.368Z,58.39
2023-04-05T01:18:28.358Z,59.17
2023-04-05T01:19:27.335Z,45.75
2023-04-05T01:20:27.312Z,57.10
2023-04-05T01:21:27.318Z,54.80
2023-04-05T01:22:27.315Z,58.43
2023-04-05T01:23:27.296Z,55.36
2023-04-05T01:24:27.291Z,46.38
2023-04-05T01:25:27.285Z,57.56
2023-04-05T01:26:27.284Z,56.83
2023-04-05T01:27:27.295Z,50.56
2023-04-05T01:28:27.270Z,54.39
2023-04-05T01:29:27.278Z,60.90
2023-04-05T01:30:27.889Z,53.00
2023-04-05T01:31:27.271Z,57.01
2023-04-05T01:32:27.284Z,55.99
2023-04-05T01:33:27.225Z,51.56
2023-04-05T01:34:27.233Z,43.09
2023-04-05T01:35:27.217Z,53.96
2023-04-05T01:36:27.203Z,56.13
2023-04-05T01:37:27.197Z,46.45
2023-04-05T01:38:27.214Z,50.67
2023-04-05T01:39:27.182Z,48.14
2023-04-05T01:40:27.169Z,56.63
2023-04-05T01:41:27.163Z,63.73
2023-04-05T01:42:27.150Z,56.40
2023-04-05T01:43:27.155Z,48.44
2023-04-05T01:44:27.144Z,46.43
2023-04-05T01:45:27.135Z,56.43
2023-04-05T01:46:27.221Z,43.46
2023-04-05T01:47:27.173Z,55.19
2023-04-05T01:48:27.116Z,48.89
2023-04-05T01:49:27.117Z,52.48
2023-04-05T01:50:27.102Z,63.03
2023-04-05T01:51:27.104Z,56.37
2023-04-05T01:52:27.801Z,60.74
2023-04-05T01:53:27.079Z,52.68
2023-04-05T01:54:27.146Z,51.42
2023-04-05T01:55:27.058Z,54.31
2023-04-05T01:56:27.061Z,59.71
2023-04-05T01:57:27.073Z,58.40
2023-04-05T01:58:27.049Z,59.27
2023-04-05T01:59:27.077Z,61.20
2023-04-05T02:00:27.030Z,59.87
2023-04-05T02:01:27.151Z,45.29
2023-04-05T02:02:27.072Z,49.43
2023-04-05T02:03:27.083Z,47.55
2023-04-05T02:04:27.033Z,42.63
2023-04-05T02:05:26.983Z,47.19
2023-04-05T02:06:27.007Z,51.63
2023-04-05T02:07:26.980Z,54.70
2023-04-05T02:08:26.997Z,47.63
2023-04-05T02:09:27.961Z,50.32
2023-04-05T02:10:26.980Z,61.69
2023-04-05T02:11:26.976Z,55.47
2023-04-05T02:12:26.930Z,57.07
2023-04-05T02:13:26.956Z,46.21
2023-04-05T02:14:26.918Z,47.50
2023-04-05T02:15:26.921Z,53.85
2023-04-05T02:16:26.914Z,51.61
2023-04-05T02:17:26.890Z,49.30
2023-04-05T02:18:26.893Z,52.51
2023-04-05T02:19:27.803Z,54.66
2023-04-05T02:20:26.882Z,60.41
2023-04-05T02:21:26.862Z,54.63
2023-04-05T02:22:26.858Z,45.90
2023-04-05T02:23:26.850Z,50.39
2023-04-05T02:24:26.868Z,46.50
2023-04-05T02:25:26.852Z,57.22
2023-04-05T02:26:26.843Z,54.31
2023-04-05T02:27:26.863Z,50.79
2023-04-05T02:28:26.839Z,59.25
2023-04-05T02:29:26.813Z,50.23
2023-04-05T02:30:26.805Z,56.17
2023-04-05T02:31:26.864Z,55.86
2023-04-05T02:32:26.835Z,54.80
2023-04-05T02:33:26.783Z,61.49
2023-04-05T02:34:26.791Z,55.73
2023-04-05T02:35:26.782Z,51.71
2023-04-05T02:36:26.755Z,55.87
2023-04-05T02:37:27.757Z,48.56
2023-04-05T02:38:26.741Z,56.16
2023-04-05T02:39:26.740Z,54.63
2023-04-05T02:40:26.736Z,59.00
2023-04-05T02:41:26.744Z,60.59
2023-04-05T02:42:26.731Z,58.36
2023-04-05T02:43:26.715Z,51.24
2023-04-05T02:44:26.710Z,61.20
2023-04-05T02:45:26.697Z,61.94
2023-04-05T02:46:26.741Z,56.52
2023-04-05T02:47:26.707Z,48.72
2023-04-05T02:48:26.673Z,55.90
2023-04-05T02:49:26.655Z,51.79
2023-04-05T02:50:26.673Z,58.83
2023-04-05T02:51:26.645Z,61.12
2023-04-05T02:52:26.656Z,61.96
2023-04-05T02:53:27.327Z,55.92
2023-04-05T02:54:26.634Z,61.95
2023-04-05T02:55:26.628Z,55.88
2023-04-05T02:56:27.388Z,59.67
2023-04-05T02:57:26.627Z,62.95
2023-04-05T02:58:26.608Z,55.30
2023-04-05T02:59:26.642Z,57.01
2023-04-05T03:00:26.590Z,56.25
2023-04-05T03:01:26.598Z,58.25
2023-04-05T03:02:26.594Z,57.76
2023-04-05T03:03:26.615Z,53.73
2023-04-05T03:04:26.549Z,61.35
2023-04-05T03:05:26.551Z,57.34
2023-04-05T03:06:26.548Z,57.57
2023-04-05T03:07:27.387Z,54.46
2023-04-05T03:08:26.588Z,56.36
2023-04-05T03:09:26.521Z,54.60
2023-04-05T03:10:26.495Z,57.98
2023-04-05T03:11:26.506Z,63.06
2023-04-05T03:12:26.517Z,62.14
2023-04-05T03:13:26.472Z,60.76
2023-04-05T03:14:26.473Z,64.89
2023-04-05T03:15:26.454Z,58.02
2023-04-05T03:16:26.506Z,60.48
2023-04-05T03:17:26.482Z,56.64
2023-04-05T03:18:26.445Z,60.36
2023-04-05T03:19:26.434Z,59.10
2023-04-05T03:20:26.432Z,63.78
2023-04-05T03:21:26.436Z,70.87
2023-04-05T03:22:26.408Z,68.94
2023-04-05T03:23:26.410Z,66.96
2023-04-05T03:24:26.393Z,65.07
2023-04-05T03:25:26.396Z,62.87
2023-04-05T03:26:26.395Z,62.38
2023-04-05T03:27:26.377Z,59.23
2023-04-05T03:28:26.370Z,58.35
2023-04-05T03:29:26.897Z,60.72
2023-04-05T03:30:26.361Z,60.05
2023-04-05T03:31:26.384Z,62.96
2023-04-05T03:32:26.423Z,59.47
2023-04-05T03:33:26.345Z,62.49
2023-04-05T03:34:26.314Z,59.48
2023-04-05T03:35:26.347Z,60.70
2023-04-05T03:36:26.330Z,63.96
2023-04-05T03:37:26.311Z,61.73
2023-04-05T03:38:26.296Z,62.80
2023-04-05T03:39:26.274Z,62.55
2023-04-05T03:40:26.299Z,64.10
2023-04-05T03:41:26.263Z,60.95
2023-04-05T03:42:26.261Z,65.41
2023-04-05T03:43:26.252Z,58.09
2023-04-05T03:44:26.230Z,61.58
2023-04-05T03:45:26.234Z,59.76
2023-04-05T03:46:26.240Z,59.58
2023-04-05T03:47:26.236Z,62.30
2023-04-05T03:48:26.229Z,60.26
2023-04-05T03:49:26.224Z,57.94
2023-04-05T03:50:26.193Z,57.02
2023-04-05T03:51:26.885Z,61.00
2023-04-05T03:52:26.174Z,69.12
2023-04-05T03:53:26.188Z,61.72
2023-04-05T03:54:26.155Z,70.96
2023-04-05T03:55:26.166Z,65.60
2023-04-05T03:56:26.211Z,66.42
2023-04-05T03:57:26.153Z,63.81
2023-04-05T03:58:26.134Z,64.81
2023-04-05T03:59:26.176Z,65.85
2023-04-05T04:00:26.121Z,64.94
2023-04-05T04:01:26.121Z,60.28
2023-04-05T04:02:26.201Z,63.34
2023-04-05T04:03:26.161Z,62.72
2023-04-05T04:04:26.094Z,66.20
2023-04-05T04:05:26.136Z,66.80
2023-04-05T04:06:26.139Z,58.67
2023-04-05T04:07:26.070Z,62.37
2023-04-05T04:08:26.070Z,62.19
2023-04-05T04:09:26.058Z,61.95
2023-04-05T04:10:26.811Z,61.99
2023-04-05T04:11:26.065Z,62.34
2023-04-05T04:12:26.038Z,62.36
2023-04-05T04:13:26.019Z,61.12
2023-04-05T04:14:26.016Z,66.30
2023-04-05T04:15:26.003Z,63.99
2023-04-05T04:16:27.467Z,59.37
2023-04-05T04:17:27.034Z,64.31
2023-04-05T04:18:26.176Z,62.30
2023-04-05T04:19:25.957Z,61.16
2023-04-05T04:20:25.978Z,63.40
2023-04-05T04:21:25.949Z,65.56
2023-04-05T04:22:25.945Z,67.25
2023-04-05T04:23:25.940Z,63.68
2023-04-05T04:24:25.938Z,63.75
2023-04-05T04:25:26.812Z,64.25
2023-04-05T04:26:25.925Z,65.83
2023-04-05T04:27:25.911Z,69.14
2023-04-05T04:28:25.885Z,64.75
2023-04-05T04:29:25.910Z,63.21
2023-04-05T04:30:25.877Z,64.11
2023-04-05T04:31:25.930Z,64.00
2023-04-05T04:32:25.891Z,65.65
2023-04-05T04:33:25.862Z,62.42
2023-04-05T04:34:25.950Z,62.47
2023-04-05T04:35:25.883Z,64.47
2023-04-05T04:36:25.852Z,67.07
2023-04-05T04:37:25.821Z,64.11
2023-04-05T04:38:25.846Z,66.01
2023-04-05T04:39:25.813Z,64.79
2023-04-05T04:40:25.808Z,64.14
2023-04-05T04:41:25.811Z,64.74
2023-04-05T04:42:25.817Z,66.00
2023-04-05T04:43:25.778Z,63.64
2023-04-05T04:44:25.791Z,65.03
2023-04-05T04:45:25.785Z,65.11
2023-04-05T04:46:25.774Z,61.79
2023-04-05T04:47:25.767Z,62.19
2023-04-05T04:48:25.750Z,65.21
2023-04-05T04:49:25.764Z,61.77
2023-04-05T04:50:26.391Z,66.39
2023-04-05T04:51:25.725Z,66.59
2023-04-05T04:52:25.712Z,64.19
2023-04-05T04:53:25.721Z,61.26
2023-04-05T04:54:25.719Z,67.03
2023-04-05T04:55:25.702Z,65.93
2023-04-05T04:56:25.684Z,66.25
2023-04-05T04:57:25.681Z,62.15
2023-04-05T04:58:25.665Z,65.16
2023-04-05T04:59:25.702Z,66.35
2023-04-05T05:00:25.672Z,66.52
2023-04-05T05:01:25.689Z,67.36
2023-04-05T05:02:25.653Z,64.27
2023-04-05T05:03:25.631Z,64.80
2023-04-05T05:04:25.675Z,67.89
2023-04-05T05:05:25.626Z,66.13
2023-04-05T05:06:26.338Z,65.54
2023-04-05T05:07:25.616Z,65.31
2023-04-05T05:08:25.604Z,65.65
2023-04-05T05:09:25.592Z,63.37
2023-04-05T05:10:25.612Z,63.21
2023-04-05T05:11:25.575Z,66.46
2023-04-05T05:12:25.555Z,65.64
2023-04-05T05:13:25.562Z,66.93
2023-04-05T05:14:25.551Z,66.78
2023-04-05T05:15:26.550Z,67.72
2023-04-05T05:16:25.608Z,63.63
2023-04-05T05:17:27.344Z,67.46
2023-04-05T05:18:25.529Z,65.85
2023-04-05T05:19:25.505Z,65.53
2023-04-05T05:20:25.498Z,65.15
2023-04-05T05:21:25.481Z,65.39
2023-04-05T05:22:26.539Z,67.03
2023-04-05T05:23:25.500Z,68.19
2023-04-05T05:24:25.505Z,64.28
2023-04-05T05:25:25.472Z,64.51
2023-04-05T05:26:25.462Z,67.44
2023-04-05T05:27:25.453Z,65.22
2023-04-05T05:28:25.447Z,65.20
2023-04-05T05:29:25.434Z,68.19
2023-04-05T05:30:25.456Z,69.59
2023-04-05T05:31:25.470Z,65.80
2023-04-05T05:32:25.451Z,66.53
2023-04-05T05:33:25.430Z,67.75
2023-04-05T05:34:25.418Z,66.10
2023-04-05T05:35:25.414Z,66.24
2023-04-05T05:36:25.383Z,65.85
2023-04-05T05:37:25.378Z,66.73
2023-04-05T05:38:25.394Z,70.16
2023-04-05T05:39:25.383Z,66.89
2023-04-05T05:40:25.354Z,66.17
2023-04-05T05:41:25.372Z,66.05
2023-04-05T05:42:25.327Z,64.84
2023-04-05T05:43:25.336Z,64.85
2023-04-05T05:44:25.322Z,66.14
2023-04-05T05:45:25.326Z,66.80
2023-04-05T05:46:25.360Z,68.38
2023-04-05T05:47:25.322Z,66.77
2023-04-05T05:48:25.290Z,66.13
2023-04-05T05:49:25.283Z,63.46
2023-04-05T05:50:25.280Z,68.05
2023-04-05T05:51:25.258Z,70.55
2023-04-05T05:52:25.418Z,65.43
2023-04-05T05:53:25.237Z,66.51
2023-04-05T05:54:25.254Z,65.06
2023-04-05T05:55:25.919Z,68.19
2023-04-05T05:56:25.246Z,67.08
2023-04-05T05:57:25.216Z,67.25
2023-04-05T05:58:25.218Z,67.14
2023-04-05T05:59:25.224Z,66.63
2023-04-05T06:00:25.176Z,66.60
2023-04-05T06:01:26.184Z,64.67
2023-04-05T06:02:25.208Z,64.31
2023-04-05T06:03:25.287Z,65.04
2023-04-05T06:04:25.334Z,66.52
2023-04-05T06:05:25.160Z,66.50
2023-04-05T06:06:25.830Z,67.09
2023-04-05T06:07:25.134Z,64.18
2023-04-05T06:08:25.166Z,64.93
2023-04-05T06:09:25.132Z,64.67
2023-04-05T06:10:25.127Z,64.36
2023-04-05T06:11:25.102Z,66.88
2023-04-05T06:12:26.037Z,65.20
2023-04-05T06:13:25.095Z,66.59
2023-04-05T06:14:25.314Z,65.58
2023-04-05T06:15:25.076Z,64.80
2023-04-05T06:16:25.161Z,65.26
2023-04-05T06:17:25.056Z,63.63
2023-04-05T06:18:25.067Z,64.22
2023-04-05T06:19:25.053Z,64.47
2023-04-05T06:20:25.484Z,66.01
2023-04-05T06:21:25.048Z,66.26
2023-04-05T06:22:25.058Z,68.43
2023-04-05T06:23:25.030Z,67.47
2023-04-05T06:24:25.034Z,67.42
2023-04-05T06:25:24.995Z,65.33
2023-04-05T06:26:25.010Z,65.86
2023-04-05T06:27:25.002Z,65.25
2023-04-05T06:28:25.004Z,63.78
2023-04-05T06:29:24.996Z,61.84
2023-04-05T06:30:24.964Z,66.78
2023-04-05T06:31:24.939Z,67.19
2023-04-05T06:32:24.930Z,65.43
2023-04-05T06:33:24.928Z,65.40
2023-04-05T06:34:25.949Z,65.18
2023-04-05T06:35:24.926Z,65.63
2023-04-05T06:36:27.313Z,69.41
2023-04-05T06:37:24.919Z,67.29
2023-04-05T06:38:25.426Z,66.98
2023-04-05T06:39:24.903Z,65.88
2023-04-05T06:40:24.870Z,64.51
2023-04-05T06:41:24.868Z,63.60
2023-04-05T06:42:26.436Z,64.49
2023-04-05T06:43:25.426Z,66.54
2023-04-05T06:44:25.428Z,63.86
2023-04-05T06:45:24.859Z,64.81
2023-04-05T06:46:24.969Z,64.86
2023-04-05T06:47:24.826Z,65.77
2023-04-05T06:48:24.839Z,65.08
2023-04-05T06:49:24.831Z,64.11
2023-04-05T06:50:24.858Z,66.08
2023-04-05T06:51:24.787Z,63.11
2023-04-05T06:52:24.830Z,64.55
2023-04-05T06:53:24.798Z,70.59
2023-04-05T06:54:24.765Z,66.88
2023-04-05T06:55:24.790Z,65.77
2023-04-05T06:56:25.366Z,69.19
2023-04-05T06:57:24.741Z,64.75
2023-04-05T06:58:25.603Z,66.74
2023-04-05T06:59:25.391Z,67.08
2023-04-05T07:00:25.354Z,66.17
2023-04-05T07:01:24.811Z,66.46
2023-04-05T07:02:24.724Z,65.47
2023-04-05T07:03:25.849Z,64.62
2023-04-05T07:04:24.767Z,65.02
2023-04-05T07:05:25.418Z,64.87
2023-04-05T07:06:26.423Z,65.26
2023-04-05T07:07:24.660Z,66.08
2023-04-05T07:08:24.646Z,66.88
2023-04-05T07:09:24.647Z,65.79
2023-04-05T07:10:24.972Z,61.98
2023-04-05T07:11:24.659Z,64.94
2023-04-05T07:12:24.606Z,62.42
2023-04-05T07:13:24.655Z,62.70
2023-04-05T07:14:24.618Z,64.18
2023-04-05T07:15:24.610Z,64.60
2023-04-05T07:16:24.659Z,62.68
2023-04-05T07:17:24.633Z,64.42
2023-04-05T07:18:25.581Z,66.09
2023-04-05T07:19:24.573Z,63.58
2023-04-05T07:20:24.581Z,65.17
2023-04-05T07:21:24.583Z,69.57
2023-04-05T07:22:24.525Z,63.98
2023-04-05T07:23:24.520Z,63.68
2023-04-05T07:24:24.526Z,65.37
2023-04-05T07:25:24.539Z,63.98
2023-04-05T07:26:24.514Z,65.68
2023-04-05T07:27:24.491Z,63.79
2023-04-05T07:28:24.491Z,63.21
2023-04-05T07:29:24.489Z,66.02
2023-04-05T07:30:24.490Z,65.37
2023-04-05T07:31:24.467Z,66.97
2023-04-05T07:32:24.606Z,65.09
2023-04-05T07:33:24.450Z,66.70
2023-04-05T07:34:24.466Z,66.45
2023-04-05T07:35:24.460Z,64.89
2023-04-05T07:36:24.435Z,63.65
2023-04-05T07:37:24.426Z,64.67
2023-04-05T07:38:24.407Z,63.65
2023-04-05T07:39:24.406Z,65.15
2023-04-05T07:40:24.397Z,64.88
2023-04-05T07:41:24.383Z,65.29
2023-04-05T07:42:24.382Z,66.90
2023-04-05T07:43:24.368Z,63.22
2023-04-05T07:44:24.403Z,65.86
2023-04-05T07:45:24.350Z,64.72
2023-04-05T07:46:24.423Z,66.05
2023-04-05T07:47:24.480Z,65.77
2023-04-05T07:48:24.391Z,64.95
2023-04-05T07:49:25.357Z,64.84
2023-04-05T07:50:24.321Z,66.60
2023-04-05T07:51:24.310Z,66.53
2023-04-05T07:52:24.290Z,67.19
2023-04-05T07:53:24.309Z,64.27
2023-04-05T07:54:24.280Z,65.90
2023-04-05T07:55:24.294Z,68.17
2023-04-05T07:56:24.306Z,64.50
2023-04-05T07:57:24.323Z,65.46
2023-04-05T07:58:24.252Z,67.06
2023-04-05T07:59:24.347Z,66.38
2023-04-05T08:00:24.256Z,65.89
2023-04-05T08:01:24.222Z,67.93
2023-04-05T08:02:24.227Z,65.44
2023-04-05T08:03:24.301Z,67.05
2023-04-05T08:04:24.203Z,64.11
2023-04-05T08:05:24.366Z,65.56
2023-04-05T08:06:24.194Z,64.32
2023-04-05T08:07:24.179Z,67.89
2023-04-05T08:08:24.172Z,69.11
2023-04-05T08:09:24.170Z,63.87
2023-04-05T08:10:24.164Z,65.05
2023-04-05T08:11:24.150Z,68.11
2023-04-05T08:12:24.149Z,66.04
2023-04-05T08:13:24.121Z,63.24
2023-04-05T08:14:24.132Z,64.27
2023-04-05T08:15:24.117Z,64.38
2023-04-05T08:16:24.200Z,64.21
2023-04-05T08:17:24.102Z,65.48
2023-04-05T08:18:24.108Z,64.00
2023-04-05T08:19:24.970Z,63.36
2023-04-05T08:20:24.089Z,65.53
2023-04-05T08:21:24.080Z,65.23
2023-04-05T08:22:24.080Z,65.99
2023-04-05T08:23:24.063Z,68.38
2023-04-05T08:24:24.083Z,64.26
2023-04-05T08:25:24.038Z,63.38
2023-04-05T08:26:24.058Z,61.73
2023-04-05T08:27:24.017Z,65.68
2023-04-05T08:28:24.002Z,66.39
2023-04-05T08:29:24.025Z,64.94
2023-04-05T08:30:23.991Z,65.44
2023-04-05T08:31:24.025Z,65.70
2023-04-05T08:32:23.976Z,64.92
2023-04-05T08:33:23.960Z,66.19
2023-04-05T08:34:23.965Z,64.70
2023-04-05T08:35:23.964Z,64.54
2023-04-05T08:36:23.966Z,62.14
2023-04-05T08:37:23.942Z,67.77
2023-04-05T08:38:23.910Z,64.35
2023-04-05T08:39:23.926Z,65.54
2023-04-05T08:40:23.898Z,63.32
2023-04-05T08:41:23.937Z,66.35
2023-04-05T08:42:23.889Z,65.08
2023-04-05T08:43:23.884Z,64.47
2023-04-05T08:44:23.879Z,65.38
2023-04-05T08:45:23.878Z,64.47
2023-04-05T08:46:23.997Z,63.46
2023-04-05T08:47:23.934Z,62.79
2023-04-05T08:48:23.843Z,64.47
2023-04-05T08:49:23.919Z,64.51
2023-04-05T08:50:23.847Z,65.74
2023-04-05T08:51:23.848Z,65.89
2023-04-05T08:52:23.864Z,65.35
2023-04-05T08:53:23.808Z,65.78
2023-04-05T08:54:23.845Z,66.42
2023-04-05T08:55:23.806Z,65.43
2023-04-05T08:56:23.810Z,66.69
2023-04-05T08:57:23.798Z,66.37
2023-04-05T08:58:23.826Z,66.68
2023-04-05T08:59:23.815Z,64.89
2023-04-05T09:00:23.773Z,66.48
2023-04-05T09:01:23.759Z,64.55
2023-04-05T09:02:23.764Z,63.70
2023-04-05T09:03:23.847Z,65.81
2023-04-05T09:04:23.727Z,65.07
2023-04-05T09:05:23.726Z,64.55
2023-04-05T09:06:23.723Z,65.74
2023-04-05T09:07:23.694Z,63.41
2023-04-05T09:08:23.779Z,64.70
2023-04-05T09:09:23.676Z,66.62
2023-04-05T09:10:23.675Z,66.01
2023-04-05T09:11:23.690Z,65.78
2023-04-05T09:12:23.662Z,65.18
2023-04-05T09:13:23.652Z,65.13
2023-04-05T09:14:23.657Z,64.42
2023-04-05T09:15:24.515Z,64.60
2023-04-05T09:16:23.695Z,65.25
2023-04-05T09:17:23.614Z,64.30
2023-04-05T09:18:27.051Z,66.10
2023-04-05T09:19:24.615Z,65.27
2023-04-05T09:20:23.603Z,66.69
2023-04-05T09:21:23.596Z,67.33
2023-04-05T09:22:24.480Z,66.38
2023-04-05T09:23:23.581Z,66.40
2023-04-05T09:24:23.571Z,64.95
2023-04-05T09:25:23.570Z,66.79
2023-04-05T09:26:23.547Z,65.60
2023-04-05T09:27:23.535Z,65.42
2023-04-05T09:28:23.680Z,65.35
2023-04-05T09:29:23.517Z,66.13
2023-04-05T09:30:23.559Z,65.38
2023-04-05T09:31:23.588Z,64.46
2023-04-05T09:32:23.512Z,65.14
2023-04-05T09:33:23.492Z,64.74
2023-04-05T09:34:23.489Z,63.85
2023-04-05T09:35:23.479Z,65.25
2023-04-05T09:36:23.482Z,65.61
2023-04-05T09:37:24.389Z,66.55
2023-04-05T09:38:23.463Z,66.25
2023-04-05T09:39:23.992Z,66.13
2023-04-05T09:40:23.436Z,65.20
2023-04-05T09:43:31.387Z,66.76
2023-04-05T09:44:31.375Z,64.37
2023-04-05T09:45:31.353Z,66.08
2023-04-05T09:46:31.405Z,63.68
2023-04-05T09:47:31.544Z,65.04
2023-04-05T09:48:31.348Z,65.97
2023-04-05T09:49:31.345Z,62.15
2023-04-05T09:50:31.306Z,62.73
2023-04-05T09:51:31.313Z,65.91
2023-04-05T09:52:31.309Z,64.60
2023-04-05T09:53:31.305Z,64.60
2023-04-05T09:54:31.314Z,65.05
2023-04-05T09:55:31.284Z,65.80
2023-04-05T09:56:31.263Z,67.19
2023-04-05T09:57:31.243Z,65.69
2023-04-05T09:58:31.239Z,64.88
2023-04-05T09:59:31.355Z,64.41
2023-04-05T10:00:32.229Z,66.33
2023-04-05T10:01:32.171Z,66.80
2023-04-05T10:02:31.253Z,67.21
2023-04-05T10:03:31.243Z,67.27
2023-04-05T10:04:32.193Z,65.49
2023-04-05T10:05:31.183Z,66.73
2023-04-05T10:06:31.189Z,66.67
2023-04-05T10:07:31.167Z,67.17
2023-04-05T10:08:32.821Z,67.44
2023-04-05T10:09:31.299Z,66.53
2023-04-05T10:10:31.166Z,65.67
2023-04-05T10:11:31.142Z,63.49
2023-04-05T10:12:31.124Z,64.32
2023-04-05T10:13:31.134Z,64.81
2023-04-05T10:14:31.230Z,64.55
2023-04-05T10:15:31.090Z,64.24
2023-04-05T10:16:31.128Z,63.71
2023-04-05T10:17:31.108Z,62.97
2023-04-05T10:18:31.077Z,65.96
2023-04-05T10:19:31.082Z,64.54
2023-04-05T10:20:31.053Z,66.33
2023-04-05T10:21:31.063Z,66.10
2023-04-05T10:22:31.061Z,66.87
2023-04-05T10:23:31.051Z,67.76
2023-04-05T10:24:31.023Z,65.42
2023-04-05T10:25:31.038Z,64.55
2023-04-05T10:26:31.011Z,63.16
2023-04-05T10:27:31.008Z,63.24
2023-04-05T10:28:31.476Z,66.40
2023-04-05T10:29:31.055Z,65.36
2023-04-05T10:30:31.005Z,65.33
2023-04-05T10:31:37.787Z,65.77
2023-04-05T10:32:33.068Z,65.64
2023-04-05T10:33:30.951Z,64.56
2023-04-05T10:34:32.160Z,62.84
2023-04-05T10:35:30.933Z,66.66
2023-04-05T10:36:30.951Z,64.09
2023-04-05T10:37:30.954Z,65.58
2023-04-05T10:38:30.905Z,66.46
2023-04-05T10:39:30.904Z,66.24
2023-04-05T10:40:30.916Z,63.79
2023-04-05T10:41:30.924Z,64.49
2023-04-05T10:42:30.878Z,63.36
2023-04-05T10:43:31.658Z,62.08
2023-04-05T10:44:30.868Z,64.24
2023-04-05T10:45:31.710Z,63.32
2023-04-05T10:46:30.895Z,63.25
2023-04-05T10:47:31.722Z,62.85
2023-04-05T10:48:30.823Z,63.12
2023-04-05T10:49:30.876Z,64.81
2023-04-05T10:50:30.805Z,66.70
2023-04-05T10:51:30.827Z,64.98
2023-04-05T10:52:30.876Z,64.66
2023-04-05T10:53:30.823Z,65.95
2023-04-05T10:54:30.804Z,63.35
2023-04-05T10:55:30.842Z,63.62
2023-04-05T10:56:30.775Z,66.70
2023-04-05T10:57:30.844Z,64.94
2023-04-05T10:58:31.278Z,62.51
2023-04-05T10:59:30.770Z,65.60
2023-04-05T11:00:30.768Z,65.77
2023-04-05T11:01:31.726Z,64.10
2023-04-05T11:02:30.760Z,63.36
2023-04-05T11:03:30.875Z,65.15
2023-04-05T11:04:30.763Z,62.80
2023-04-05T11:05:30.768Z,66.49
2023-04-05T11:06:30.669Z,62.53
2023-04-05T11:07:30.679Z,63.93
2023-04-05T11:08:30.657Z,64.03
2023-04-05T11:09:30.657Z,63.53
2023-04-05T11:10:30.665Z,62.44
2023-04-05T11:11:30.644Z,62.87
2023-04-05T11:12:30.632Z,61.65
2023-04-05T11:13:30.642Z,62.46
2023-04-05T11:14:30.617Z,63.09
2023-04-05T11:15:30.732Z,61.76
2023-04-05T11:16:30.636Z,63.72
2023-04-05T11:17:30.602Z,64.37
2023-04-05T11:18:30.597Z,63.24
2023-04-05T11:19:30.582Z,62.91
2023-04-05T11:20:30.579Z,66.57
2023-04-05T11:21:30.568Z,67.02
2023-04-05T11:22:30.564Z,65.18
2023-04-05T11:23:30.564Z,67.65
2023-04-05T11:24:30.762Z,63.27
2023-04-05T11:25:30.535Z,63.93
2023-04-05T11:26:30.515Z,62.52
2023-04-05T11:27:30.522Z,62.53
2023-04-05T11:28:30.547Z,65.84
2023-04-05T11:29:30.496Z,64.17
2023-04-05T11:30:30.490Z,64.98
2023-04-05T11:31:30.529Z,63.89
2023-04-05T11:32:30.516Z,63.77
2023-04-05T11:33:30.502Z,63.71
2023-04-05T11:34:30.497Z,61.42
2023-04-05T11:35:30.465Z,62.49
2023-04-05T11:36:30.494Z,65.14
2023-04-05T11:37:30.418Z,65.25
2023-04-05T11:38:30.425Z,65.31
2023-04-05T11:39:30.428Z,63.43
2023-04-05T11:40:30.403Z,66.41
2023-04-05T11:41:30.403Z,61.95
2023-04-05T11:42:30.378Z,64.11
2023-04-05T11:43:30.421Z,66.82
2023-04-05T11:44:30.381Z,63.22
2023-04-05T11:45:32.043Z,63.39
2023-04-05T11:46:31.476Z,66.51
2023-04-05T11:47:30.410Z,62.62
2023-04-05T11:48:31.340Z,62.39
2023-04-05T11:49:30.331Z,64.53
2023-04-05T11:50:30.341Z,63.66
2023-04-05T11:51:31.247Z,63.81
2023-04-05T11:52:30.316Z,61.92
2023-04-05T11:53:30.314Z,63.23
2023-04-05T11:54:30.320Z,63.12
2023-04-05T11:55:30.297Z,63.46
2023-04-05T11:56:30.368Z,66.15
2023-04-05T11:57:30.279Z,64.62
2023-04-05T11:58:30.251Z,62.92
2023-04-05T11:59:30.357Z,65.20
2023-04-05T12:00:31.239Z,65.23
2023-04-05T12:01:31.291Z,63.43
2023-04-05T12:02:30.258Z,63.70
2023-04-05T12:03:30.332Z,64.54
2023-04-05T12:04:30.287Z,63.70
2023-04-05T12:05:30.196Z,64.45
2023-04-05T12:06:32.152Z,63.96
2023-04-05T12:07:31.183Z,63.35
2023-04-05T12:08:30.671Z,65.63
2023-04-05T12:09:30.179Z,64.23
2023-04-05T12:10:30.177Z,62.18
2023-04-05T12:11:30.159Z,65.81
2023-04-05T12:12:30.138Z,63.70
2023-04-05T12:13:30.133Z,64.96
2023-04-05T12:14:30.146Z,61.92
2023-04-05T12:15:30.111Z,63.74
2023-04-05T12:16:30.208Z,64.13
2023-04-05T12:17:30.167Z,62.82
2023-04-05T12:18:30.093Z,63.47
2023-04-05T12:19:30.675Z,65.53
2023-04-05T12:20:30.089Z,67.19
2023-04-05T12:21:30.084Z,63.98
2023-04-05T12:24:36.352Z,65.02
2023-04-05T12:25:37.441Z,65.59
2023-04-05T12:26:37.452Z,65.39
2023-04-05T12:27:37.405Z,64.25
2023-04-05T12:28:37.410Z,63.55
2023-04-05T12:29:37.413Z,64.97
2023-04-05T12:30:37.392Z,64.78
2023-04-05T12:31:39.355Z,64.05
2023-04-05T12:32:37.451Z,63.58
2023-04-05T12:33:37.367Z,64.62
2023-04-05T12:34:37.367Z,64.43
2023-04-05T12:35:37.345Z,63.17
2023-04-05T12:36:37.329Z,63.89
2023-04-05T12:37:37.331Z,66.91
2023-04-05T12:38:38.336Z,64.74
2023-04-05T12:39:37.318Z,64.18
2023-04-05T12:40:37.321Z,64.02
2023-04-05T12:41:37.352Z,64.35
2023-04-05T12:42:37.305Z,68.08
2023-04-05T12:43:37.280Z,66.76
2023-04-05T12:44:37.286Z,67.19
2023-04-05T12:45:37.318Z,63.30
2023-04-05T12:46:38.343Z,62.23
2023-04-05T12:47:37.301Z,65.03
2023-04-05T12:48:37.245Z,64.87
2023-04-05T12:49:37.232Z,63.40
2023-04-05T12:50:37.220Z,63.60
2023-04-05T12:51:37.215Z,62.51
2023-04-05T12:52:39.247Z,63.86
2023-04-05T12:53:37.200Z,64.28
2023-04-05T12:54:38.207Z,68.42
2023-04-05T12:55:37.219Z,63.96
2023-04-05T12:56:37.225Z,65.25
2023-04-05T12:57:37.179Z,65.88
2023-04-05T12:58:37.198Z,65.46